Time;durP1;ratioP1;P1;durP2;ratioP2;P2;SDS_P1;SDS_P2;PMS_P1;PMS_P2;Temp;Humidity;BMP_temperature;BMP_pressure;BME280_temperature;BME280_humidity;BME280_pressure;Samples;Min_cycle;Max_cycle;Signal;HPM_P1;HPM_P2
2022/07/01 00:26:00;198126.00;0.66;342.70;0.00;0.00;0.62;;;;;21.50;1.00;;;;;;1699909;56;3121;-88
2022/07/01 00:28:28;56790.00;0.19;98.93;0.00;0.00;0.62;;;;;21.30;1.00;;;;;;2283006;55;3756;-88
2022/07/01 00:51:03;952927.00;3.18;1649.27;0.00;0.00;0.62;;;;;21.70;1.00;;;;;;2279809;61;986;-92
2022/07/01 00:53:30;134062.00;0.45;232.33;0.00;0.00;0.62;;;;;22.10;1.00;;;;;;2277546;61;1031;-90
2022/07/01 00:55:57;137449.00;0.46;238.17;0.00;0.00;0.62;;;;;22.10;1.00;;;;;;2277551;61;1088;-88
2022/07/01 01:28:37;409042.00;1.36;705.35;0.00;0.00;0.62;;;;;22.30;1.00;;;;;;2305825;40;3554;-87
2022/07/01 01:46:05;518831.00;1.73;894.25;0.00;0.00;0.62;;;;;22.10;1.00;;;;;;2282855;61;1075;-90
2022/07/01 01:51:02;1025877.00;3.42;1778.36;73789.00;0.25;128.31;;;;;22.00;1.00;;;;;;1953777;56;3622;-89
2022/07/01 02:36:26;193025.00;0.64;333.92;15042.00;0.05;26.68;;;;;21.60;1.00;;;;;;2326399;55;3599;-86
2022/07/01 02:46:27;847546.00;2.83;1464.17;0.00;0.00;0.62;;;;;21.90;1.00;;;;;;2270804;61;1306;-90
2022/07/01 03:14:09;1061391.00;3.54;1841.51;0.00;0.00;0.62;;;;;21.60;1.00;;;;;;2399919;55;3591;-89
2022/07/01 03:24:06;323891.00;1.08;558.99;0.00;0.00;0.62;;;;;21.70;1.00;;;;;;2295042;40;3460;-87
2022/07/01 03:49:16;746412.00;2.49;1287.82;75322.00;0.25;130.96;;;;;22.10;1.00;;;;;;2320400;40;3451;-91
2022/07/01 03:59:13;877603.00;2.93;1516.82;69374.00;0.23;120.68;;;;;22.40;1.00;;;;;;2280816;61;1327;-88
2022/07/01 04:16:48;781536.00;2.61;1348.94;6344.00;0.02;11.61;;;;;22.20;1.00;;;;;;2282962;61;1201;-89
2022/07/01 05:09:56;579582.00;1.93;998.98;0.00;0.00;0.62;;;;;20.70;1.00;;;;;;2279215;61;1365;-90
2022/07/01 06:15:18;1413045.00;4.71;2480.54;0.00;0.00;0.62;;;;;22.10;1.00;;;;;;2333981;39;3646;-87
2022/07/01 06:20:19;866271.00;2.89;1496.96;0.00;0.00;0.62;;;;;21.90;1.00;;;;;;2275171;61;1300;-90
2022/07/01 06:22:47;255533.00;0.85;441.47;0.00;0.00;0.62;;;;;21.50;1.00;;;;;;2273147;61;1613;-89
2022/07/01 06:42:53;748666.00;2.50;1291.74;77711.00;0.26;135.08;;;;;21.50;1.00;;;;;;2352313;39;3777;-87
2022/07/01 06:50:25;1190965.00;3.97;2073.89;26015.00;0.09;45.68;;;;;21.80;1.00;;;;;;2271018;61;1433;-91
2022/07/01 06:52:55;239463.00;0.80;413.83;0.00;0.00;0.62;;;;;21.90;1.00;;;;;;2269021;61;1627;-90
2022/07/01 06:55:22;104428.00;0.35;181.21;0.00;0.00;0.62;;;;;22.00;1.00;;;;;;2269044;61;1704;-87
2022/07/01 07:00:30;1345951.00;4.49;2356.45;145363.00;0.48;251.82;;;;;22.30;1.00;;;;;;2270657;61;1340;-91
2022/07/01 07:02:57;299534.00;1.00;517.12;70594.00;0.24;122.79;;;;;22.30;1.00;;;;;;2269117;61;1072;-91
2022/07/01 07:12:53;1004132.00;3.35;1739.79;71372.00;0.24;124.13;;;;;22.30;1.00;;;;;;2293189;55;3622;-90
2022/07/01 07:25:32;1215792.00;4.05;2118.80;0.00;0.00;0.62;;;;;21.90;1.00;;;;;;2303320;55;3528;-88
2022/07/01 07:33:04;319876.00;1.07;552.08;0.00;0.00;0.62;;;;;22.20;1.00;;;;;;1442307;55;3067;-90
2022/07/01 07:35:31;440612.00;1.47;759.64;0.00;0.00;0.62;;;;;22.20;1.00;;;;;;2378449;40;3609;-91
2022/07/01 07:40:27;1316266.00;4.39;2301.90;76984.00;0.26;133.83;;;;;21.80;1.00;;;;;;2278819;61;1348;-88
2022/07/01 07:42:56;262623.00;0.88;453.66;0.00;0.00;0.62;;;;;21.70;1.00;;;;;;2276883;61;1284;-88
2022/07/01 07:45:23;452865.00;1.51;780.71;2582.00;0.01;5.10;;;;;21.50;1.00;;;;;;2276821;61;1998;-86
2022/07/01 07:58:03;317046.00;1.06;547.22;0.00;0.00;0.62;;;;;21.80;1.00;;;;;;832570;56;2757;-88
2022/07/01 08:02:59;737772.00;2.46;1272.80;0.00;0.00;0.62;;;;;22.00;1.00;;;;;;2386192;40;3489;-89
2022/07/01 08:10:25;1399287.00;4.66;2455.00;29222.00;0.10;51.24;;;;;21.60;1.00;;;;;;2273977;61;1321;-89
2022/07/01 08:12:52;342279.00;1.14;590.59;0.00;0.00;0.62;;;;;21.30;1.00;;;;;;2276426;55;3732;-88
2022/07/01 08:15:20;991813.00;3.31;1717.98;29120.00;0.10;51.06;;;;;21.30;1.00;;;;;;2272555;61;1533;-88
2022/07/01 08:17:48;303712.00;1.01;524.30;0.00;0.00;0.62;;;;;21.30;1.00;;;;;;2272339;61;1029;-88
2022/07/01 08:20:16;306773.00;1.02;529.56;0.00;0.00;0.62;;;;;21.60;1.00;;;;;;2268719;61;1765;-90
2022/07/01 08:22:43;642686.00;2.14;1107.98;0.00;0.00;0.62;;;;;21.80;1.00;;;;;;2268290;61;2115;-87
2022/07/01 08:25:10;505414.00;1.68;871.15;11346.00;0.04;20.28;;;;;21.90;1.00;;;;;;2268269;61;1992;-87
2022/07/01 08:27:37;932889.00;3.11;1613.96;84585.00;0.28;146.96;;;;;22.00;1.00;;;;;;2268221;61;1101;-87
2022/07/01 08:30:05;971191.00;3.24;1681.51;127974.00;0.43;221.84;;;;;22.10;1.00;;;;;;2268273;61;1387;-87
2022/07/01 08:32:33;1189746.00;3.97;2071.69;182038.00;0.61;315.00;;;;;22.20;1.00;;;;;;2268248;61;1530;-87
2022/07/01 08:35:00;1123525.00;3.75;1952.55;98766.00;0.33;171.44;;;;;22.20;1.00;;;;;;2268292;61;1047;-89
2022/07/01 08:37:27;903272.00;3.01;1561.87;192683.00;0.64;333.33;;;;;22.20;1.00;;;;;;2268269;61;1130;-87
2022/07/01 08:39:54;905647.00;3.02;1566.04;99985.00;0.33;173.55;;;;;22.10;1.00;;;;;;2268245;61;1367;-88
2022/07/01 08:42:21;582890.00;1.94;1004.69;119662.00;0.40;207.50;;;;;22.10;1.00;;;;;;2268232;61;1146;-87
2022/07/01 08:44:48;176704.00;0.59;305.81;69838.00;0.23;121.48;;;;;22.10;1.00;;;;;;2268079;61;1997;-86
2022/07/01 08:47:15;183615.00;0.61;317.71;69556.00;0.23;120.99;;;;;22.20;1.00;;;;;;2268117;61;1129;-87
2022/07/01 08:49:44;170928.00;0.57;295.87;67303.00;0.22;117.10;;;;;22.10;1.00;;;;;;2268053;61;2025;-88
2022/07/01 08:52:11;166922.00;0.56;288.96;69504.00;0.23;120.90;;;;;22.10;1.00;;;;;;2268140;61;1277;-88
2022/07/01 08:54:39;268886.00;0.90;464.43;72828.00;0.24;126.65;;;;;22.20;1.00;;;;;;2268090;61;1751;-88
2022/07/01 08:57:07;189332.00;0.63;327.56;64683.00;0.22;112.57;;;;;22.10;1.00;;;;;;2268799;61;1006;-88
2022/07/01 08:59:34;165335.00;0.55;286.23;68867.00;0.23;119.80;;;;;22.00;1.00;;;;;;2268828;61;1292;-88
2022/07/01 09:02:04;217210.00;0.72;375.54;60783.00;0.20;105.83;;;;;22.10;1.00;;;;;;2268737;61;1318;-88
2022/07/01 09:04:31;289363.00;0.96;499.63;93114.00;0.31;161.68;;;;;22.10;1.00;;;;;;2268873;61;1972;-90
2022/07/01 09:07:05;35467.00;0.12;62.04;0.00;0.00;0.62;;;;;22.20;1.00;;;;;;2268850;61;1098;-89
2022/07/01 09:12:09;248439.00;0.83;429.27;69052.00;0.23;120.12;;;;;22.30;1.00;;;;;;2279885;39;3527;-87
2022/07/01 09:14:36;177012.00;0.59;306.34;73844.00;0.25;128.40;;;;;22.20;1.00;;;;;;2276806;61;1412;-87
2022/07/01 09:17:05;181658.00;0.61;314.34;70885.00;0.24;123.29;;;;;22.00;1.00;;;;;;2276900;61;979;-87
2022/07/01 09:19:35;230199.00;0.77;397.89;71252.00;0.24;123.92;;;;;21.90;1.00;;;;;;2274401;61;2157;-88
2022/07/01 09:22:05;94054.00;0.31;163.31;0.00;0.00;0.62;;;;;21.70;1.00;;;;;;2272722;61;1684;-86
2022/07/01 09:24:34;0.00;0.00;0.62;0.00;0.00;0.62;;;;;22.00;1.00;;;;;;2272812;61;1996;-87
2022/07/01 09:27:06;0.00;0.00;0.62;0.00;0.00;0.62;;;;;22.00;1.00;;;;;;2272801;61;974;-88
2022/07/01 09:29:34;0.00;0.00;0.62;0.00;0.00;0.62;;;;;22.20;1.00;;;;;;2272858;61;1358;-88
2022/07/01 09:32:03;22975.00;0.08;40.42;0.00;0.00;0.62;;;;;22.30;1.00;;;;;;2272866;61;927;-88
2022/07/01 09:34:34;0.00;0.00;0.62;0.00;0.00;0.62;;;;;22.30;1.00;;;;;;2272827;61;1141;-88
2022/07/01 09:37:03;35261.00;0.12;61.69;0.00;0.00;0.62;;;;;21.90;1.00;;;;;;2272756;61;1670;-88
2022/07/01 09:39:30;0.00;0.00;0.62;0.00;0.00;0.62;;;;;22.00;1.00;;;;;;2272769;61;1407;-89
2022/07/01 09:41:58;19811.00;0.07;34.94;0.00;0.00;0.62;;;;;22.10;1.00;;;;;;2272956;61;929;-88
2022/07/01 09:44:26;59482.00;0.20;103.58;0.00;0.00;0.62;;;;;21.80;1.00;;;;;;2272763;61;1998;-88
2022/07/01 09:46:55;0.00;0.00;0.62;0.00;0.00;0.62;;;;;21.40;1.00;;;;;;2272660;61;1010;-87
2022/07/01 09:49:22;0.00;0.00;0.62;0.00;0.00;0.62;;;;;21.20;1.00;;;;;;2272767;61;1299;-87
2022/07/01 09:51:50;62942.00;0.21;109.56;0.00;0.00;0.62;;;;;21.50;1.00;;;;;;2272734;61;1115;-89
2022/07/01 09:54:19;96156.00;0.32;166.94;0.00;0.00;0.62;;;;;21.60;1.00;;;;;;2272756;61;1577;-87
2022/07/01 09:56:46;68359.00;0.23;118.92;0.00;0.00;0.62;;;;;22.00;1.00;;;;;;2272769;61;1083;-88
2022/07/01 09:59:13;32405.00;0.11;56.75;0.00;0.00;0.62;;;;;22.10;1.00;;;;;;2272689;61;1640;-87
2022/07/01 10:01:42;38859.00;0.13;67.91;0.00;0.00;0.62;;;;;22.10;1.00;;;;;;2272798;61;2179;-87
2022/07/01 10:04:11;41385.00;0.14;72.28;0.00;0.00;0.62;;;;;22.30;1.00;;;;;;2272685;61;993;-86
2022/07/01 10:06:58;9983.00;0.03;17.92;0.00;0.00;0.62;;;;;22.20;1.00;;;;;;2272566;61;2031;-88
2022/07/01 10:09:48;182498.00;0.61;315.79;0.00;0.00;0.62;;;;;22.00;1.00;;;;;;2297576;56;3845;-86
2022/07/01 10:12:44;0.00;0.00;0.62;0.00;0.00;0.62;;;;;21.80;1.00;;;;;;2272664;61;916;-88
2022/07/01 10:15:16;186090.00;0.62;321.98;0.00;0.00;0.62;;;;;21.60;1.00;;;;;;2272616;61;1068;-87
2022/07/01 10:17:45;249513.00;0.83;431.11;0.00;0.00;0.62;;;;;21.60;1.00;;;;;;2272536;61;1355;-87
2022/07/01 10:20:15;796862.00;2.66;1375.65;39234.00;0.13;68.56;;;;;21.80;1.00;;;;;;2272634;61;1365;-87
2022/07/01 10:22:43;260501.00;0.87;450.01;72484.00;0.24;126.05;;;;;22.00;1.00;;;;;;2272652;61;1051;-88
2022/07/01 10:25:34;267748.00;0.89;462.47;72290.00;0.24;125.72;;;;;21.80;1.00;;;;;;2272627;61;1996;-88
2022/07/01 10:28:29;245727.00;0.82;424.60;64361.00;0.21;112.02;;;;;21.90;1.00;;;;;;2272590;61;1043;-86
2022/07/01 10:31:01;417385.00;1.39;719.69;0.00;0.00;0.62;;;;;22.00;1.00;;;;;;2263575;61;1104;-87
2022/07/01 10:33:34;0.00;0.00;0.62;0.00;0.00;0.62;;;;;22.10;1.00;;;;;;2272606;61;933;-88
2022/07/01 10:36:19;0.00;0.00;0.62;0.00;0.00;0.62;;;;;22.20;1.00;;;;;;2272525;61;1094;-87
2022/07/01 10:39:27;288882.00;0.96;498.81;73255.00;0.24;127.38;;;;;22.60;1.00;;;;;;2272514;61;1365;-87
2022/07/01 10:42:12;619488.00;2.06;1067.88;39225.00;0.13;68.55;;;;;22.30;1.00;;;;;;2271612;61;1189;-87
2022/07/01 10:44:39;1072109.00;3.57;1860.62;53481.00;0.18;93.21;;;;;21.90;1.00;;;;;;2272505;61;1929;-89
2022/07/01 10:47:08;886529.00;2.96;1532.47;107365.00;0.36;186.28;;;;;22.00;1.00;;;;;;2272543;61;1084;-87
2022/07/01 10:49:57;563412.00;1.88;971.08;83351.00;0.28;144.83;;;;;22.00;1.00;;;;;;2272510;61;1368;-91
2022/07/01 10:52:25;1215407.00;4.05;2118.10;60090.00;0.20;104.63;;;;;22.10;1.00;;;;;;2272456;61;1455;-87
2022/07/01 10:54:55;890937.00;2.97;1540.21;42417.00;0.14;74.07;;;;;21.90;1.00;;;;;;2272509;61;1087;-86
2022/07/01 10:57:35;428597.00;1.43;738.97;49422.00;0.16;86.19;;;;;21.90;1.00;;;;;;2272532;61;1506;-87
2022/07/01 11:00:34;220830.00;0.74;381.77;0.00;0.00;0.62;;;;;21.80;1.00;;;;;;2272606;61;1442;-87
2022/07/01 11:03:23;499682.00;1.67;861.28;38212.00;0.13;66.79;;;;;22.30;1.00;;;;;;2272397;61;1536;-88
2022/07/01 11:05:53;87332.00;0.29;151.70;0.00;0.00;0.62;;;;;22.50;1.00;;;;;;2271617;61;2018;-86
2022/07/01 11:08:21;0.00;0.00;0.62;0.00;0.00;0.62;;;;;22.60;1.00;;;;;;2272331;61;1361;-86
2022/07/01 11:10:52;146070.00;0.49;253.03;0.00;0.00;0.62;;;;;22.70;1.00;;;;;;2272365;61;1605;-86
2022/07/01 11:13:22;0.00;0.00;0.62;0.00;0.00;0.62;;;;;22.40;1.00;;;;;;2272538;61;1027;-87
2022/07/01 11:15:49;81481.00;0.27;141.60;0.00;0.00;0.62;;;;;22.50;1.00;;;;;;2272468;61;1053;-87
2022/07/01 11:18:19;2512.00;0.01;4.97;0.00;0.00;0.62;;;;;22.90;1.00;;;;;;2272234;61;1593;-85
2022/07/01 11:20:47;15232.00;0.05;27.01;0.00;0.00;0.62;;;;;22.80;1.00;;;;;;2272437;61;1115;-87
2022/07/01 11:23:16;0.00;0.00;0.62;0.00;0.00;0.62;;;;;23.00;1.00;;;;;;2272440;61;1127;-88
2022/07/01 11:25:43;211869.00;0.71;366.35;52449.00;0.17;91.42;;;;;22.80;1.00;;;;;;2272393;61;2004;-87
2022/07/01 11:28:12;373488.00;1.24;644.23;9473.00;0.03;17.04;;;;;23.20;1.00;;;;;;2272364;61;992;-87
2022/07/01 11:30:41;170497.00;0.57;295.12;0.00;0.00;0.62;;;;;23.70;1.00;;;;;;2272360;61;1132;-85
2022/07/01 11:33:11;114981.00;0.38;199.42;0.00;0.00;0.62;;;;;23.90;1.00;;;;;;2272474;61;1147;-85
2022/07/01 11:41:19;56545.00;0.19;98.50;0.00;0.00;0.62;;;;;24.10;1.00;;;;;;2272509;61;710;-87
2022/07/01 11:43:46;699393.00;2.33;1206.19;122246.00;0.41;211.96;;;;;24.60;1.00;;;;;;2272433;61;1121;-86
2022/07/01 11:46:15;527175.00;1.76;908.62;73539.00;0.25;127.88;;;;;24.60;1.00;;;;;;2272416;61;2008;-87
2022/07/01 11:48:44;273007.00;0.91;471.51;62442.00;0.21;108.70;;;;;24.40;1.00;;;;;;2272491;61;1343;-87
2022/07/01 11:51:13;262329.00;0.87;453.15;97669.00;0.33;169.55;;;;;24.20;1.00;;;;;;2272465;61;1068;-87
2022/07/01 11:53:42;205930.00;0.69;356.13;76305.00;0.25;132.65;;;;;24.10;1.00;;;;;;2272499;61;1060;-87
2022/07/01 11:56:09;191554.00;0.64;331.38;66460.00;0.22;115.64;;;;;23.60;1.00;;;;;;2272526;61;1064;-87
2022/07/01 11:58:48;89084.00;0.30;154.73;0.00;0.00;0.62;;;;;23.70;1.00;;;;;;2272481;61;1358;-86
2022/07/01 12:01:25;0.00;0.00;0.62;0.00;0.00;0.62;;;;;24.00;1.00;;;;;;2272443;61;1612;-86
2022/07/01 12:03:52;35409.00;0.12;61.94;0.00;0.00;0.62;;;;;24.10;1.00;;;;;;2272565;61;1095;-86
2022/07/01 12:06:23;0.00;0.00;0.62;0.00;0.00;0.62;;;;;24.00;1.00;;;;;;2272480;61;1994;-86
2022/07/01 12:08:53;24909.00;0.08;43.77;0.00;0.00;0.62;;;;;24.20;1.00;;;;;;2272373;61;1249;-87
2022/07/01 12:11:22;44984.00;0.15;78.51;0.00;0.00;0.62;;;;;24.70;1.00;;;;;;2272463;61;1032;-87
2022/07/01 12:13:50;0.00;0.00;0.62;0.00;0.00;0.62;;;;;24.30;1.00;;;;;;2272453;61;996;-87
2022/07/01 12:16:17;4070.00;0.01;7.67;0.00;0.00;0.62;;;;;24.60;1.00;;;;;;2272418;61;2014;-88
2022/07/01 12:18:57;0.00;0.00;0.62;0.00;0.00;0.62;;;;;24.50;1.00;;;;;;2272584;61;1277;-86
2022/07/01 12:21:25;140942.00;0.47;244.19;0.00;0.00;0.62;;;;;24.60;1.00;;;;;;2272579;61;1560;-87
2022/07/01 12:24:12;0.00;0.00;0.62;0.00;0.00;0.62;;;;;24.80;1.00;;;;;;2272402;61;1574;-87
2022/07/01 12:26:53;153809.00;0.51;266.37;0.00;0.00;0.62;;;;;24.90;1.00;;;;;;2272254;61;2020;-86
2022/07/01 12:29:23;0.00;0.00;0.62;0.00;0.00;0.62;;;;;24.50;1.00;;;;;;2272315;61;2209;-88
2022/07/01 12:32:01;104861.00;0.35;181.96;0.00;0.00;0.62;;;;;24.80;1.00;;;;;;2272732;61;1330;-87
2022/07/01 12:34:41;192881.00;0.64;333.67;0.00;0.00;0.62;;;;;25.50;1.00;;;;;;2273041;61;1323;-85
2022/07/01 12:37:13;106165.00;0.35;184.21;0.00;0.00;0.62;;;;;25.60;1.00;;;;;;2272936;61;1450;-86
2022/07/01 12:39:49;0.00;0.00;0.62;0.00;0.00;0.62;;;;;25.80;1.00;;;;;;2272862;61;1380;-87
2022/07/01 12:42:29;361175.00;1.20;623.07;0.00;0.00;0.62;;;;;26.00;1.00;;;;;;2283666;56;3741;-87
2022/07/01 12:50:17;715616.00;2.39;1234.33;0.00;0.00;0.62;;;;;25.60;1.00;;;;;;2278296;61;1360;-87
2022/07/01 12:52:57;0.00;0.00;0.62;0.00;0.00;0.62;;;;;25.40;1.00;;;;;;2277099;61;1069;-86
2022/07/01 12:55:34;53285.00;0.18;92.87;0.00;0.00;0.62;;;;;25.10;1.00;;;;;;2277058;61;1043;-87
2022/07/01 12:58:12;206333.00;0.69;356.82;60141.00;0.20;104.72;;;;;24.50;1.00;;;;;;2277083;61;1548;-88
2022/07/01 13:00:41;74147.00;0.25;128.93;0.00;0.00;0.62;;;;;24.40;1.00;;;;;;2276971;61;1438;-89
2022/07/01 13:03:09;0.00;0.00;0.62;0.00;0.00;0.62;;;;;24.20;1.00;;;;;;2276842;61;1454;-88
2022/07/01 13:05:42;31622.00;0.11;55.39;0.00;0.00;0.62;;;;;24.60;1.00;;;;;;2276874;61;2005;-88
2022/07/01 13:08:10;74257.00;0.25;129.12;0.00;0.00;0.62;;;;;25.10;1.00;;;;;;2277009;61;1286;-87
2022/07/01 13:10:41;15141.00;0.05;26.85;0.00;0.00;0.62;;;;;25.10;1.00;;;;;;2279855;40;3602;-85
2022/07/01 13:15:41;795402.00;2.65;1373.11;37334.00;0.12;65.28;;;;;25.60;1.00;;;;;;2283480;55;3685;-86
2022/07/01 13:20:43;1352333.00;4.51;2368.21;0.00;0.00;0.62;;;;;25.60;1.00;;;;;;2274432;61;1332;-87
2022/07/01 13:25:50;793442.00;2.64;1369.69;0.00;0.00;0.62;;;;;25.60;1.00;;;;;;2278417;61;1968;-90
2022/07/01 13:28:17;65339.00;0.22;113.71;0.00;0.00;0.62;;;;;25.90;1.00;;;;;;2277129;61;1501;-87
2022/07/01 13:30:44;0.00;0.00;0.62;0.00;0.00;0.62;;;;;25.60;1.00;;;;;;2280012;39;3646;-87
2022/07/01 13:33:13;169986.00;0.57;294.24;0.00;0.00;0.62;;;;;25.30;1.00;;;;;;2277077;61;1463;-88
2022/07/01 13:35:45;114272.00;0.38;198.20;0.00;0.00;0.62;;;;;25.50;1.00;;;;;;2277027;61;1133;-89
2022/07/01 13:38:14;251902.00;0.84;435.22;25569.00;0.09;44.91;;;;;25.20;1.00;;;;;;2276873;61;1025;-87
2022/07/01 13:40:41;143602.00;0.48;248.78;0.00;0.00;0.62;;;;;25.70;1.00;;;;;;2272893;61;1049;-89
2022/07/01 13:45:40;344610.00;1.15;594.60;0.00;0.00;0.62;;;;;25.40;1.00;;;;;;2278534;61;1899;-87
2022/07/01 13:48:07;142625.00;0.48;247.10;0.00;0.00;0.62;;;;;25.10;1.00;;;;;;2276786;61;1594;-89
2022/07/01 13:50:36;117708.00;0.39;204.13;0.00;0.00;0.62;;;;;25.00;1.00;;;;;;2276830;61;1341;-88
2022/07/01 13:53:06;214682.00;0.72;371.19;0.00;0.00;0.62;;;;;24.60;1.00;;;;;;2276873;61;986;-88
2022/07/01 13:55:33;56227.00;0.19;97.95;0.00;0.00;0.62;;;;;24.70;1.00;;;;;;2276858;61;1308;-89
2022/07/01 14:00:36;836856.00;2.79;1445.48;59525.00;0.20;103.66;;;;;25.10;1.00;;;;;;2233946;59;2205;-86
2022/07/01 14:03:03;548944.00;1.83;946.14;0.00;0.00;0.62;;;;;25.30;1.00;;;;;;2272010;61;1560;-85
2022/07/01 14:05:30;99809.00;0.33;173.24;0.00;0.00;0.62;;;;;25.10;1.00;;;;;;2268550;61;2004;-87
2022/07/01 14:07:57;361864.00;1.21;624.25;0.00;0.00;0.62;;;;;25.20;1.00;;;;;;2268641;61;1076;-87
2022/07/01 14:10:27;0.00;0.00;0.62;0.00;0.00;0.62;;;;;25.30;1.00;;;;;;2268590;61;1304;-88
2022/07/01 14:12:54;118569.00;0.40;205.61;0.00;0.00;0.62;;;;;24.80;1.00;;;;;;2268656;61;1607;-87
2022/07/01 14:15:21;11545.00;0.04;20.63;0.00;0.00;0.62;;;;;24.70;1.00;;;;;;2268632;61;1717;-87
2022/07/01 14:17:48;128432.00;0.43;222.63;0.00;0.00;0.62;;;;;24.90;1.00;;;;;;2268549;61;1020;-87
2022/07/01 14:20:15;88268.00;0.29;153.32;0.00;0.00;0.62;;;;;25.00;1.00;;;;;;2268599;61;1606;-87
2022/07/01 14:22:43;68607.00;0.23;119.35;0.00;0.00;0.62;;;;;25.30;1.00;;;;;;2268662;61;930;-88
2022/07/01 14:25:10;176148.00;0.59;304.86;46427.00;0.15;81.01;;;;;25.30;1.00;;;;;;2268644;61;1076;-85
2022/07/01 14:27:38;25814.00;0.09;45.34;0.00;0.00;0.62;;;;;24.60;1.00;;;;;;2268585;61;1924;-87
2022/07/01 14:30:07;121709.00;0.41;211.03;0.00;0.00;0.62;;;;;24.30;1.00;;;;;;2268565;61;1392;-86
2022/07/01 14:32:35;126553.00;0.42;219.38;0.00;0.00;0.62;;;;;24.00;1.00;;;;;;2268476;61;1472;-85
2022/07/01 14:35:03;0.00;0.00;0.62;0.00;0.00;0.62;;;;;24.40;1.00;;;;;;2268468;61;1115;-88
2022/07/01 14:37:30;41811.00;0.14;73.02;0.00;0.00;0.62;;;;;24.50;1.00;;;;;;2268525;61;1044;-85
2022/07/01 14:39:58;59651.00;0.20;103.87;0.00;0.00;0.62;;;;;24.50;1.00;;;;;;2268467;61;1350;-87
2022/07/01 14:42:25;21094.00;0.07;37.16;0.00;0.00;0.62;;;;;24.40;1.00;;;;;;2268524;61;1794;-87
2022/07/01 14:44:54;5847.00;0.02;10.75;0.00;0.00;0.62;;;;;24.90;1.00;;;;;;2268551;61;1010;-89
2022/07/01 14:47:22;0.00;0.00;0.62;0.00;0.00;0.62;;;;;24.80;1.00;;;;;;2268447;61;1918;-87
2022/07/01 14:49:49;198896.00;0.66;344.02;0.00;0.00;0.62;;;;;24.40;1.00;;;;;;2268445;61;1380;-86
2022/07/01 14:52:17;36189.00;0.12;63.29;0.00;0.00;0.62;;;;;24.00;1.00;;;;;;2268510;61;1135;-86
2022/07/01 14:54:45;0.00;0.00;0.62;0.00;0.00;0.62;;;;;24.10;1.00;;;;;;2268219;61;1113;-88
2022/07/01 14:57:12;139861.00;0.47;242.33;0.00;0.00;0.62;;;;;24.30;1.00;;;;;;2268315;61;1362;-87
2022/07/01 14:59:39;130352.00;0.43;225.94;0.00;0.00;0.62;;;;;24.20;1.00;;;;;;2268429;61;1393;-88
2022/07/01 15:02:08;33930.00;0.11;59.38;0.00;0.00;0.62;;;;;24.00;1.00;;;;;;2268455;61;1123;-87
2022/07/01 15:04:35;145122.00;0.48;251.40;0.00;0.00;0.62;;;;;23.70;1.00;;;;;;2268493;61;1076;-87
2022/07/01 15:07:02;0.00;0.00;0.62;0.00;0.00;0.62;;;;;23.60;1.00;;;;;;2268500;61;1914;-86
2022/07/01 15:09:29;111464.00;0.37;193.36;0.00;0.00;0.62;;;;;23.70;1.00;;;;;;2268496;61;1254;-86
2022/07/01 15:11:56;79270.00;0.26;137.78;0.00;0.00;0.62;;;;;23.20;1.00;;;;;;2268471;61;1017;-87
2022/07/01 15:14:23;478218.00;1.59;824.33;5254.00;0.02;9.73;;;;;23.10;1.00;;;;;;2268521;61;933;-87
2022/07/01 15:16:50;506260.00;1.69;872.60;9249.00;0.03;16.65;;;;;23.20;1.00;;;;;;2268435;61;1598;-88
2022/07/01 15:19:19;775544.00;2.59;1338.51;69553.00;0.23;120.99;;;;;23.40;1.00;;;;;;2268424;61;1267;-87
2022/07/01 15:21:46;542434.00;1.81;934.92;28845.00;0.10;50.58;;;;;23.40;1.00;;;;;;2268496;61;1442;-88
2022/07/01 15:24:13;367896.00;1.23;634.62;0.00;0.00;0.62;;;;;23.40;1.00;;;;;;2268386;61;2179;-88
2022/07/01 15:26:43;494059.00;1.65;851.60;23161.00;0.08;40.74;;;;;23.30;1.00;;;;;;2268294;61;1998;-89
2022/07/01 15:29:10;197370.00;0.66;341.40;0.00;0.00;0.62;;;;;23.50;1.00;;;;;;2268278;61;2085;-86
2022/07/01 15:31:37;446382.00;1.49;769.56;1850.00;0.01;3.83;;;;;23.80;1.00;;;;;;2268420;61;1105;-88
2022/07/01 15:34:04;451794.00;1.51;778.87;21974.00;0.07;38.69;;;;;24.20;1.00;;;;;;2268467;61;1075;-86
2022/07/01 15:36:32;627875.00;2.09;1082.38;38778.00;0.13;67.77;;;;;24.40;1.00;;;;;;2268386;61;2151;-86
2022/07/01 15:39:00;543357.00;1.81;936.51;48626.00;0.16;84.81;;;;;24.90;1.00;;;;;;2268230;61;1422;-87
2022/07/01 15:41:27;240619.00;0.80;415.82;5777.00;0.02;10.63;;;;;25.00;1.00;;;;;;2268386;61;1007;-86
2022/07/01 15:43:55;338431.00;1.13;583.98;12440.00;0.04;22.18;;;;;24.80;1.00;;;;;;2268310;61;2161;-87
2022/07/01 15:46:21;297073.00;0.99;512.89;0.00;0.00;0.62;;;;;24.50;1.00;;;;;;2268339;61;1990;-87
2022/07/01 15:48:49;686515.00;2.29;1183.86;51311.00;0.17;89.45;;;;;24.30;1.00;;;;;;2268300;61;1373;-88
2022/07/01 15:51:16;731178.00;2.44;1261.35;36382.00;0.12;63.63;;;;;24.50;1.00;;;;;;2268384;61;1181;-88
2022/07/01 15:53:45;579758.00;1.93;999.28;4366.00;0.01;8.19;;;;;24.60;1.00;;;;;;2268318;61;1148;-88
2022/07/01 15:56:12;680297.00;2.27;1173.09;22065.00;0.07;38.85;;;;;24.90;1.00;;;;;;2268212;61;1183;-88
2022/07/01 15:58:39;847072.00;2.82;1463.34;50525.00;0.17;88.09;;;;;25.20;1.00;;;;;;2268307;61;1384;-86
2022/07/01 16:01:08;995870.00;3.32;1725.16;186141.00;0.62;322.06;;;;;25.50;1.00;;;;;;2268227;61;1545;-87
2022/07/01 16:03:35;1033643.00;3.45;1792.15;71198.00;0.24;123.83;;;;;25.70;1.00;;;;;;2268292;61;1072;-86
2022/07/01 16:06:06;431391.00;1.44;743.78;21163.00;0.07;37.28;;;;;25.90;1.00;;;;;;2268246;61;1210;-86
2022/07/01 16:08:35;592503.00;1.98;1021.28;0.00;0.00;0.62;;;;;25.30;1.00;;;;;;2268296;61;1373;-87
2022/07/01 16:11:08;389876.00;1.30;672.40;0.00;0.00;0.62;;;;;25.20;1.00;;;;;;2268250;61;1319;-87
2022/07/01 16:13:40;236500.00;0.79;408.73;0.00;0.00;0.62;;;;;24.80;1.00;;;;;;2268245;61;1442;-86
2022/07/01 16:16:10;295242.00;0.98;509.74;0.00;0.00;0.62;;;;;25.00;1.00;;;;;;2268302;61;1143;-88
2022/07/01 16:18:39;953085.00;3.18;1649.55;75241.00;0.25;130.82;;;;;25.10;1.00;;;;;;2268210;61;1400;-86
2022/07/01 16:21:07;501065.00;1.67;863.66;20866.00;0.07;36.77;;;;;25.20;1.00;;;;;;2268202;61;1102;-87
2022/07/01 16:23:36;700457.00;2.33;1208.03;73380.00;0.24;127.60;;;;;25.50;1.00;;;;;;2268266;61;894;-85
2022/07/01 16:26:03;816338.00;2.72;1409.63;139196.00;0.46;241.18;;;;;25.40;1.00;;;;;;2268179;61;1651;-86
2022/07/01 16:28:32;981072.00;3.27;1698.98;67778.00;0.23;117.92;;;;;25.10;1.00;;;;;;2268071;61;1938;-86
2022/07/01 16:31:00;660743.00;2.20;1139.23;92077.00;0.31;159.89;;;;;24.50;1.00;;;;;;2268163;61;1100;-87
2022/07/01 16:33:31;667983.00;2.23;1151.76;115519.00;0.39;200.35;;;;;24.10;1.00;;;;;;2268180;61;2096;-87
2022/07/01 16:36:06;299803.00;1.00;517.58;0.00;0.00;0.62;;;;;24.10;1.00;;;;;;2268347;61;1079;-89
2022/07/01 16:38:47;365296.00;1.22;630.15;0.00;0.00;0.62;;;;;24.30;1.00;;;;;;2268231;61;1353;-87
2022/07/01 16:41:22;456000.00;1.52;786.10;0.00;0.00;0.62;;;;;24.70;1.00;;;;;;2268140;61;1764;-87
2022/07/01 16:43:54;402762.00;1.34;694.55;0.00;0.00;0.62;;;;;24.80;1.00;;;;;;2268312;61;912;-87
2022/07/01 16:46:26;560435.00;1.87;965.95;16709.00;0.06;29.57;;;;;24.90;1.00;;;;;;2268163;61;2004;-87
2022/07/01 16:48:56;277781.00;0.93;479.72;0.00;0.00;0.62;;;;;25.00;1.00;;;;;;2268183;61;1335;-86
2022/07/01 16:51:30;554242.00;1.85;955.27;57295.00;0.19;99.80;;;;;24.90;1.00;;;;;;2268121;61;1065;-88
2022/07/01 16:53:57;389726.00;1.30;672.14;31724.00;0.11;55.57;;;;;24.70;1.00;;;;;;2268230;61;1618;-85
2022/07/01 16:56:28;354765.00;1.18;612.05;0.00;0.00;0.62;;;;;24.50;1.00;;;;;;2268207;61;1719;-87
2022/07/01 16:59:01;443056.00;1.48;763.84;69853.00;0.23;121.51;;;;;24.60;1.00;;;;;;2268024;61;1442;-88
2022/07/01 17:01:29;468597.00;1.56;807.78;69884.00;0.23;121.56;;;;;24.80;1.00;;;;;;2268216;61;1056;-87
2022/07/01 17:03:58;539449.00;1.80;929.77;64334.00;0.21;111.97;;;;;24.80;1.00;;;;;;2268223;61;1099;-86
2022/07/01 17:06:26;291552.00;0.97;503.40;72261.00;0.24;125.67;;;;;24.60;1.00;;;;;;2268189;61;1947;-87
2022/07/01 17:08:54;203958.00;0.68;352.74;66656.00;0.22;115.98;;;;;23.70;1.00;;;;;;2268164;61;1392;-86
2022/07/01 17:11:21;183204.00;0.61;317.01;66615.00;0.22;115.91;;;;;23.60;1.00;;;;;;2268226;61;1103;-87
2022/07/01 17:13:48;348328.00;1.16;600.99;66145.00;0.22;115.10;;;;;23.30;1.00;;;;;;2268164;61;1050;-87